sensor_id;sensor_type;location;lat;lon;timestamp;pressure;altitude;pressure_sealevel;temperature;humidity
30730;BME280;17476;48.458;7.928;2022-08-06T00:02:29;100372.66;;;24.01;49.67
30730;BME280;17476;48.458;7.928;2022-08-06T00:04:57;100376.72;;;24.04;49.41
30730;BME280;17476;48.458;7.928;2022-08-06T00:07:24;100368.13;;;24.02;49.91
30730;BME280;17476;48.458;7.928;2022-08-06T00:09:50;100377.22;;;24.01;49.66
30730;BME280;17476;48.458;7.928;2022-08-06T00:12:16;100373.97;;;23.99;49.46
30730;BME280;17476;48.458;7.928;2022-08-06T00:14:42;100374.19;;;23.97;49.75
30730;BME280;17476;48.458;7.928;2022-08-06T00:17:08;100380.28;;;23.92;50.41
30730;BME280;17476;48.458;7.928;2022-08-06T00:19:34;100375.84;;;23.98;50.27
30730;BME280;17476;48.458;7.928;2022-08-06T00:22:00;100377.00;;;23.90;50.22
30730;BME280;17476;48.458;7.928;2022-08-06T00:24:26;100367.53;;;23.83;50.47
30730;BME280;17476;48.458;7.928;2022-08-06T00:26:52;100378.31;;;23.88;49.98
30730;BME280;17476;48.458;7.928;2022-08-06T00:29:18;100379.69;;;23.90;50.27
30730;BME280;17476;48.458;7.928;2022-08-06T00:31:43;100381.69;;;23.83;50.41
30730;BME280;17476;48.458;7.928;2022-08-06T00:34:09;100381.84;;;23.77;50.48
30730;BME280;17476;48.458;7.928;2022-08-06T00:36:35;100392.53;;;23.77;50.73
30730;BME280;17476;48.458;7.928;2022-08-06T00:39:05;100396.00;;;23.77;50.78
30730;BME280;17476;48.458;7.928;2022-08-06T00:41:32;100386.72;;;23.80;50.78
30730;BME280;17476;48.458;7.928;2022-08-06T00:43:59;100388.34;;;23.81;50.68
30730;BME280;17476;48.458;7.928;2022-08-06T00:46:26;100390.91;;;23.76;50.80
30730;BME280;17476;48.458;7.928;2022-08-06T00:48:52;100386.97;;;23.78;50.92
30730;BME280;17476;48.458;7.928;2022-08-06T00:51:18;100389.06;;;23.76;51.08
30730;BME280;17476;48.458;7.928;2022-08-06T00:53:45;100386.06;;;23.73;51.13
30730;BME280;17476;48.458;7.928;2022-08-06T00:56:11;100390.09;;;23.75;51.17
30730;BME280;17476;48.458;7.928;2022-08-06T00:58:37;100393.97;;;23.67;51.42
30730;BME280;17476;48.458;7.928;2022-08-06T01:01:04;100389.13;;;23.64;51.46
30730;BME280;17476;48.458;7.928;2022-08-06T01:03:30;100395.84;;;23.67;50.73
30730;BME280;17476;48.458;7.928;2022-08-06T01:05:56;100398.97;;;23.64;51.28
30730;BME280;17476;48.458;7.928;2022-08-06T01:08:22;100407.81;;;23.64;50.84
30730;BME280;17476;48.458;7.928;2022-08-06T01:10:49;100401.41;;;23.65;50.91
30730;BME280;17476;48.458;7.928;2022-08-06T01:13:15;100410.25;;;23.54;50.75
30730;BME280;17476;48.458;7.928;2022-08-06T01:15:44;100402.00;;;23.56;50.81
30730;BME280;17476;48.458;7.928;2022-08-06T01:18:27;100406.66;;;23.49;50.92
30730;BME280;17476;48.458;7.928;2022-08-06T01:32:03;100403.88;;;23.43;49.92
30730;BME280;17476;48.458;7.928;2022-08-06T01:34:42;100408.09;;;23.39;50.96
30730;BME280;17476;48.458;7.928;2022-08-06T01:37:56;100410.53;;;23.29;50.83
30730;BME280;17476;48.458;7.928;2022-08-06T01:40:31;100415.53;;;23.26;50.06
30730;BME280;17476;48.458;7.928;2022-08-06T01:42:59;100415.53;;;23.26;50.84
30730;BME280;17476;48.458;7.928;2022-08-06T01:45:31;100418.91;;;23.21;50.13
30730;BME280;17476;48.458;7.928;2022-08-06T01:48:02;100413.81;;;23.20;50.49
30730;BME280;17476;48.458;7.928;2022-08-06T01:50:39;100412.88;;;23.14;50.45
30730;BME280;17476;48.458;7.928;2022-08-06T01:53:08;100407.78;;;23.12;50.90
30730;BME280;17476;48.458;7.928;2022-08-06T01:55:45;100411.84;;;23.15;50.41
30730;BME280;17476;48.458;7.928;2022-08-06T01:58:16;100418.22;;;23.14;50.03
30730;BME280;17476;48.458;7.928;2022-08-06T02:00:46;100410.47;;;23.12;50.09
30730;BME280;17476;48.458;7.928;2022-08-06T02:03:25;100419.88;;;23.03;50.37
30730;BME280;17476;48.458;7.928;2022-08-06T02:05:53;100422.44;;;22.98;50.75
30730;BME280;17476;48.458;7.928;2022-08-06T02:08:24;100432.28;;;22.98;50.46
30730;BME280;17476;48.458;7.928;2022-08-06T02:10:52;100431.13;;;22.94;49.92
30730;BME280;17476;48.458;7.928;2022-08-06T02:13:20;100441.22;;;22.92;50.00
30730;BME280;17476;48.458;7.928;2022-08-06T02:15:49;100435.88;;;22.92;49.95
30730;BME280;17476;48.458;7.928;2022-08-06T02:18:18;100434.59;;;22.94;49.79
30730;BME280;17476;48.458;7.928;2022-08-06T02:20:52;100429.50;;;22.93;50.26
30730;BME280;17476;48.458;7.928;2022-08-06T02:23:23;100436.47;;;22.94;49.91
30730;BME280;17476;48.458;7.928;2022-08-06T02:25:53;100437.50;;;22.93;49.92
30730;BME280;17476;48.458;7.928;2022-08-06T02:28:23;100437.38;;;22.87;49.14
30730;BME280;17476;48.458;7.928;2022-08-06T02:30:52;100443.53;;;22.88;49.62
30730;BME280;17476;48.458;7.928;2022-08-06T02:33:19;100438.44;;;22.86;50.09
30730;BME280;17476;48.458;7.928;2022-08-06T02:38:47;100443.84;;;22.80;49.67
30730;BME280;17476;48.458;7.928;2022-08-06T02:47:23;100454.41;;;22.63;50.01
30730;BME280;17476;48.458;7.928;2022-08-06T02:49:56;100456.47;;;22.61;49.92
30730;BME280;17476;48.458;7.928;2022-08-06T02:52:48;100449.41;;;22.67;49.52
30730;BME280;17476;48.458;7.928;2022-08-06T02:55:18;100455.31;;;22.69;49.77
30730;BME280;17476;48.458;7.928;2022-08-06T02:57:54;100460.75;;;22.62;49.47
30730;BME280;17476;48.458;7.928;2022-08-06T03:00:22;100457.50;;;22.60;49.18
30730;BME280;17476;48.458;7.928;2022-08-06T03:02:55;100459.72;;;22.63;49.63
30730;BME280;17476;48.458;7.928;2022-08-06T03:05:24;100457.06;;;22.63;49.58
30730;BME280;17476;48.458;7.928;2022-08-06T03:07:51;100464.84;;;22.65;49.31
30730;BME280;17476;48.458;7.928;2022-08-06T03:10:20;100463.66;;;22.60;49.61
30730;BME280;17476;48.458;7.928;2022-08-06T03:12:47;100466.44;;;22.54;49.85
30730;BME280;17476;48.458;7.928;2022-08-06T03:15:15;100470.59;;;22.50;49.82
30730;BME280;17476;48.458;7.928;2022-08-06T03:17:44;100463.53;;;22.44;49.97
30730;BME280;17476;48.458;7.928;2022-08-06T03:20:14;100469.91;;;22.43;49.67
30730;BME280;17476;48.458;7.928;2022-08-06T03:22:41;100470.66;;;22.31;50.07
30730;BME280;17476;48.458;7.928;2022-08-06T03:25:10;100466.38;;;22.30;50.27
30730;BME280;17476;48.458;7.928;2022-08-06T03:27:38;100473.91;;;22.33;50.05
30730;BME280;17476;48.458;7.928;2022-08-06T03:30:05;100469.84;;;22.31;50.33
30730;BME280;17476;48.458;7.928;2022-08-06T03:32:31;100475.63;;;22.28;50.58
30730;BME280;17476;48.458;7.928;2022-08-06T03:34:58;100468.34;;;22.23;50.20
30730;BME280;17476;48.458;7.928;2022-08-06T03:37:25;100455.69;;;22.19;50.00
30730;BME280;17476;48.458;7.928;2022-08-06T03:39:53;100466.00;;;22.15;50.65
30730;BME280;17476;48.458;7.928;2022-08-06T03:42:20;100464.94;;;22.16;50.39
30730;BME280;17476;48.458;7.928;2022-08-06T03:44:46;100464.81;;;22.11;50.85
30730;BME280;17476;48.458;7.928;2022-08-06T03:47:36;100464.41;;;22.07;50.32
30730;BME280;17476;48.458;7.928;2022-08-06T03:50:16;100469.16;;;22.05;50.80
30730;BME280;17476;48.458;7.928;2022-08-06T03:55:44;100463.81;;;22.05;50.67
30730;BME280;17476;48.458;7.928;2022-08-06T03:58:14;100471.25;;;22.03;50.37
30730;BME280;17476;48.458;7.928;2022-08-06T04:00:53;100471.34;;;21.97;50.75
30730;BME280;17476;48.458;7.928;2022-08-06T04:03:21;100475.63;;;21.98;50.96
30730;BME280;17476;48.458;7.928;2022-08-06T04:05:48;100479.91;;;21.99;50.54
30730;BME280;17476;48.458;7.928;2022-08-06T04:08:15;100483.84;;;21.96;50.96
30730;BME280;17476;48.458;7.928;2022-08-06T04:10:46;100483.47;;;21.93;50.62
30730;BME280;17476;48.458;7.928;2022-08-06T04:13:17;100487.81;;;21.87;51.27
30730;BME280;17476;48.458;7.928;2022-08-06T04:15:44;100486.19;;;21.86;51.20
30730;BME280;17476;48.458;7.928;2022-08-06T04:18:14;100495.47;;;21.84;50.87
30730;BME280;17476;48.458;7.928;2022-08-06T04:20:46;100493.69;;;21.77;51.37
30730;BME280;17476;48.458;7.928;2022-08-06T04:23:12;100498.06;;;21.72;51.82
30730;BME280;17476;48.458;7.928;2022-08-06T04:25:45;100491.19;;;21.64;51.39
30730;BME280;17476;48.458;7.928;2022-08-06T04:28:14;100498.28;;;21.70;51.28
30730;BME280;17476;48.458;7.928;2022-08-06T04:30:41;100505.22;;;21.71;51.56
30730;BME280;17476;48.458;7.928;2022-08-06T04:33:12;100504.56;;;21.76;51.41
30730;BME280;17476;48.458;7.928;2022-08-06T04:35:40;100510.78;;;21.70;51.74
30730;BME280;17476;48.458;7.928;2022-08-06T04:38:09;100520.56;;;21.76;51.13
30730;BME280;17476;48.458;7.928;2022-08-06T04:40:39;100520.91;;;21.79;51.55
30730;BME280;17476;48.458;7.928;2022-08-06T04:43:07;100519.28;;;21.78;51.68
30730;BME280;17476;48.458;7.928;2022-08-06T04:45:37;100514.91;;;21.84;51.68
30730;BME280;17476;48.458;7.928;2022-08-06T04:48:08;100519.19;;;21.85;51.61
30730;BME280;17476;48.458;7.928;2022-08-06T04:50:36;100528.16;;;21.91;51.67
30730;BME280;17476;48.458;7.928;2022-08-06T04:53:21;100529.78;;;21.92;51.73
30730;BME280;17476;48.458;7.928;2022-08-06T04:55:48;100519.72;;;21.94;51.53
30730;BME280;17476;48.458;7.928;2022-08-06T04:58:16;100527.25;;;21.97;51.64
30730;BME280;17476;48.458;7.928;2022-08-06T05:00:46;100532.81;;;21.95;51.32
30730;BME280;17476;48.458;7.928;2022-08-06T05:03:13;100538.22;;;21.89;51.89
30730;BME280;17476;48.458;7.928;2022-08-06T05:05:54;100536.00;;;21.86;51.86
30730;BME280;17476;48.458;7.928;2022-08-06T05:08:22;100543.56;;;21.89;51.60
30730;BME280;17476;48.458;7.928;2022-08-06T05:11:01;100548.72;;;21.84;52.18
30730;BME280;17476;48.458;7.928;2022-08-06T05:13:36;100545.75;;;21.73;52.45
30730;BME280;17476;48.458;7.928;2022-08-06T05:16:08;100550.66;;;21.76;52.53
30730;BME280;17476;48.458;7.928;2022-08-06T05:18:53;100545.63;;;21.68;52.71
30730;BME280;17476;48.458;7.928;2022-08-06T05:21:33;100553.00;;;21.66;52.64
30730;BME280;17476;48.458;7.928;2022-08-06T05:24:02;100552.34;;;21.71;52.48
30730;BME280;17476;48.458;7.928;2022-08-06T05:26:29;100548.00;;;21.76;52.40
30730;BME280;17476;48.458;7.928;2022-08-06T05:28:55;100548.00;;;21.76;52.70
30730;BME280;17476;48.458;7.928;2022-08-06T05:31:35;100547.59;;;21.73;52.80
30730;BME280;17476;48.458;7.928;2022-08-06T05:34:03;100552.56;;;21.69;52.61
30730;BME280;17476;48.458;7.928;2022-08-06T05:36:29;100554.19;;;21.70;52.68
30730;BME280;17476;48.458;7.928;2022-08-06T05:38:56;100557.50;;;21.66;53.01
30730;BME280;17476;48.458;7.928;2022-08-06T05:41:22;100557.28;;;21.67;53.08
30730;BME280;17476;48.458;7.928;2022-08-06T05:43:48;100553.00;;;21.66;52.82
30730;BME280;17476;48.458;7.928;2022-08-06T05:46:20;100555.88;;;21.65;53.28
30730;BME280;17476;48.458;7.928;2022-08-06T05:49:17;100563.66;;;21.66;53.10
30730;BME280;17476;48.458;7.928;2022-08-06T05:51:57;100561.59;;;21.68;53.58
30730;BME280;17476;48.458;7.928;2022-08-06T05:54:48;100566.41;;;21.78;53.18
30730;BME280;17476;48.458;7.928;2022-08-06T05:57:53;100573.44;;;21.91;53.39
30730;BME280;17476;48.458;7.928;2022-08-06T06:00:26;100573.94;;;21.99;53.26
30730;BME280;17476;48.458;7.928;2022-08-06T06:02:56;100576.75;;;22.04;52.57
30730;BME280;17476;48.458;7.928;2022-08-06T06:05:23;100583.44;;;22.14;52.97
30730;BME280;17476;48.458;7.928;2022-08-06T06:07:50;100581.88;;;22.24;53.19
30730;BME280;17476;48.458;7.928;2022-08-06T06:10:18;100583.19;;;22.33;53.61
30730;BME280;17476;48.458;7.928;2022-08-06T06:12:44;100586.94;;;22.44;52.76
30730;BME280;17476;48.458;7.928;2022-08-06T06:15:12;100587.19;;;22.54;52.69
30730;BME280;17476;48.458;7.928;2022-08-06T06:23:11;100580.69;;;22.80;51.85
30730;BME280;17476;48.458;7.928;2022-08-06T06:31:56;100590.28;;;23.11;50.80
30730;BME280;17476;48.458;7.928;2022-08-06T06:37:43;100600.16;;;23.34;50.35
30730;BME280;17476;48.458;7.928;2022-08-06T06:46:09;100595.22;;;23.73;48.72
30730;BME280;17476;48.458;7.928;2022-08-06T06:48:47;100600.75;;;23.83;48.82
30730;BME280;17476;48.458;7.928;2022-08-06T06:51:32;100596.69;;;23.92;48.21
30730;BME280;17476;48.458;7.928;2022-08-06T06:53:59;100607.69;;;24.08;47.92
30730;BME280;17476;48.458;7.928;2022-08-06T06:56:36;100602.06;;;24.21;47.65
30730;BME280;17476;48.458;7.928;2022-08-06T06:59:18;100602.50;;;24.30;47.11
30730;BME280;17476;48.458;7.928;2022-08-06T07:01:47;100596.81;;;24.38;46.71
30730;BME280;17476;48.458;7.928;2022-08-06T07:04:16;100599.34;;;24.44;46.66
30730;BME280;17476;48.458;7.928;2022-08-06T07:06:45;100596.38;;;24.58;46.32
30730;BME280;17476;48.458;7.928;2022-08-06T07:09:21;100601.88;;;24.80;46.05
30730;BME280;17476;48.458;7.928;2022-08-06T07:11:49;100603.25;;;24.82;45.76
30730;BME280;17476;48.458;7.928;2022-08-06T07:14:16;100602.13;;;24.95;45.38
30730;BME280;17476;48.458;7.928;2022-08-06T07:16:44;100600.09;;;25.02;45.57
30730;BME280;17476;48.458;7.928;2022-08-06T07:19:11;100602.50;;;25.15;45.16
30730;BME280;17476;48.458;7.928;2022-08-06T07:21:42;100595.06;;;25.39;44.76
30730;BME280;17476;48.458;7.928;2022-08-06T07:24:14;100603.41;;;25.59;44.62
30730;BME280;17476;48.458;7.928;2022-08-06T07:26:45;100600.34;;;25.68;43.80
30730;BME280;17476;48.458;7.928;2022-08-06T07:29:13;100589.91;;;25.88;43.76
30730;BME280;17476;48.458;7.928;2022-08-06T07:31:41;100591.19;;;26.07;43.07
30730;BME280;17476;48.458;7.928;2022-08-06T07:34:07;100595.88;;;26.17;43.38
30730;BME280;17476;48.458;7.928;2022-08-06T07:36:42;100589.13;;;26.58;42.11
30730;BME280;17476;48.458;7.928;2022-08-06T07:39:16;100595.03;;;26.60;41.24
30730;BME280;17476;48.458;7.928;2022-08-06T07:41:44;100600.19;;;26.40;41.36
30730;BME280;17476;48.458;7.928;2022-08-06T07:44:13;100596.38;;;26.36;42.16
30730;BME280;17476;48.458;7.928;2022-08-06T07:46:43;100591.88;;;26.20;42.16
30730;BME280;17476;48.458;7.928;2022-08-06T07:49:10;100593.84;;;26.02;42.02
30730;BME280;17476;48.458;7.928;2022-08-06T07:51:44;100589.53;;;26.01;42.08
30730;BME280;17476;48.458;7.928;2022-08-06T07:54:16;100587.47;;;25.86;42.63
30730;BME280;17476;48.458;7.928;2022-08-06T07:56:44;100586.34;;;25.82;42.89
30730;BME280;17476;48.458;7.928;2022-08-06T07:59:11;100591.56;;;25.94;42.29
30730;BME280;17476;48.458;7.928;2022-08-06T08:01:38;100591.78;;;26.09;42.46
30730;BME280;17476;48.458;7.928;2022-08-06T08:04:08;100591.41;;;26.23;41.71
30730;BME280;17476;48.458;7.928;2022-08-06T08:06:54;100588.06;;;26.37;41.98
30730;BME280;17476;48.458;7.928;2022-08-06T08:09:24;100592.00;;;26.52;41.17
30730;BME280;17476;48.458;7.928;2022-08-06T08:11:52;100583.81;;;26.63;41.42
30730;BME280;17476;48.458;7.928;2022-08-06T08:14:21;100589.66;;;27.19;40.13
30730;BME280;17476;48.458;7.928;2022-08-06T08:16:49;100587.91;;;27.83;39.22
30730;BME280;17476;48.458;7.928;2022-08-06T08:19:33;100593.75;;;28.27;37.56
30730;BME280;17476;48.458;7.928;2022-08-06T08:22:04;100581.72;;;28.70;37.47
30730;BME280;17476;48.458;7.928;2022-08-06T08:24:33;100583.91;;;29.24;36.44
30730;BME280;17476;48.458;7.928;2022-08-06T08:26:59;100580.63;;;29.63;35.73
30730;BME280;17476;48.458;7.928;2022-08-06T08:29:26;100591.03;;;29.95;35.64
30730;BME280;17476;48.458;7.928;2022-08-06T08:31:54;100582.25;;;30.29;34.75
30730;BME280;17476;48.458;7.928;2022-08-06T08:34:21;100583.16;;;30.53;34.18
30730;BME280;17476;48.458;7.928;2022-08-06T08:36:47;100587.69;;;30.63;34.20
30730;BME280;17476;48.458;7.928;2022-08-06T08:39:13;100589.31;;;30.69;32.99
30730;BME280;17476;48.458;7.928;2022-08-06T08:42:33;100582.00;;;31.04;33.59
30730;BME280;17476;48.458;7.928;2022-08-06T08:44:34;100583.72;;;31.23;32.40
30730;BME280;17476;48.458;7.928;2022-08-06T08:47:02;100582.94;;;31.71;32.33
30730;BME280;17476;48.458;7.928;2022-08-06T08:49:41;100586.00;;;31.88;30.99
30730;BME280;17476;48.458;7.928;2022-08-06T08:52:16;100586.53;;;32.09;31.20
30730;BME280;17476;48.458;7.928;2022-08-06T08:54:50;100579.16;;;32.15;30.79
30730;BME280;17476;48.458;7.928;2022-08-06T08:57:17;100587.09;;;32.49;31.09
30730;BME280;17476;48.458;7.928;2022-08-06T08:59:44;100586.41;;;32.76;30.47
30730;BME280;17476;48.458;7.928;2022-08-06T09:02:13;100580.47;;;32.93;30.17
30730;BME280;17476;48.458;7.928;2022-08-06T09:04:40;100570.66;;;33.10;30.09
30730;BME280;17476;48.458;7.928;2022-08-06T09:07:08;100590.41;;;32.78;29.74
30730;BME280;17476;48.458;7.928;2022-08-06T09:09:36;100585.66;;;33.22;29.73
30730;BME280;17476;48.458;7.928;2022-08-06T09:12:04;100578.00;;;33.24;29.16
30730;BME280;17476;48.458;7.928;2022-08-06T09:14:30;100586.56;;;33.31;29.03
30730;BME280;17476;48.458;7.928;2022-08-06T09:16:58;100579.81;;;33.14;29.38
30730;BME280;17476;48.458;7.928;2022-08-06T09:19:25;100594.50;;;33.27;28.70
30730;BME280;17476;48.458;7.928;2022-08-06T09:21:56;100590.56;;;33.20;29.19
30730;BME280;17476;48.458;7.928;2022-08-06T09:24:23;100586.41;;;33.41;29.08
30730;BME280;17476;48.458;7.928;2022-08-06T09:27:09;100585.00;;;33.57;28.83
30730;BME280;17476;48.458;7.928;2022-08-06T09:29:36;100580.50;;;33.94;28.16
30730;BME280;17476;48.458;7.928;2022-08-06T09:32:12;100572.25;;;34.35;28.08
30730;BME280;17476;48.458;7.928;2022-08-06T09:34:39;100577.72;;;34.21;27.58
30730;BME280;17476;48.458;7.928;2022-08-06T09:37:06;100572.88;;;34.55;26.79
30730;BME280;17476;48.458;7.928;2022-08-06T09:39:40;100588.81;;;34.34;27.14
30730;BME280;17476;48.458;7.928;2022-08-06T09:42:07;100579.72;;;34.16;26.96
30730;BME280;17476;48.458;7.928;2022-08-06T09:44:34;100584.00;;;34.44;26.97
30730;BME280;17476;48.458;7.928;2022-08-06T09:47:00;100579.56;;;34.71;26.49
30730;BME280;17476;48.458;7.928;2022-08-06T09:49:43;100580.88;;;34.96;26.11
30730;BME280;17476;48.458;7.928;2022-08-06T09:52:17;100570.81;;;34.96;26.22
30730;BME280;17476;48.458;7.928;2022-08-06T09:54:44;100573.72;;;35.09;26.61
30730;BME280;17476;48.458;7.928;2022-08-06T09:57:12;100579.06;;;35.22;25.90
30730;BME280;17476;48.458;7.928;2022-08-06T09:59:47;100581.25;;;35.43;25.84
30730;BME280;17476;48.458;7.928;2022-08-06T10:02:15;100584.38;;;35.67;25.12
30730;BME280;17476;48.458;7.928;2022-08-06T10:04:44;100576.09;;;35.90;25.41
30730;BME280;17476;48.458;7.928;2022-08-06T10:07:10;100582.44;;;36.25;24.65
30730;BME280;17476;48.458;7.928;2022-08-06T10:09:51;100579.56;;;36.56;24.57
30730;BME280;17476;48.458;7.928;2022-08-06T10:12:21;100573.97;;;36.52;24.39
30730;BME280;17476;48.458;7.928;2022-08-06T10:14:47;100571.88;;;36.67;23.89
30730;BME280;17476;48.458;7.928;2022-08-06T10:17:19;100586.16;;;36.46;24.02
30730;BME280;17476;48.458;7.928;2022-08-06T10:20:11;100576.03;;;36.21;23.96
30730;BME280;17476;48.458;7.928;2022-08-06T10:22:55;100579.25;;;36.40;23.79
30730;BME280;17476;48.458;7.928;2022-08-06T10:25:25;100574.91;;;36.74;23.90
30730;BME280;17476;48.458;7.928;2022-08-06T10:27:54;100578.78;;;36.47;23.23
30730;BME280;17476;48.458;7.928;2022-08-06T10:30:21;100574.56;;;36.58;23.51
30730;BME280;17476;48.458;7.928;2022-08-06T10:32:52;100577.47;;;36.61;23.91
30730;BME280;17476;48.458;7.928;2022-08-06T10:35:22;100581.50;;;36.47;22.98
30730;BME280;17476;48.458;7.928;2022-08-06T10:37:57;100570.88;;;36.10;23.96
30730;BME280;17476;48.458;7.928;2022-08-06T10:40:26;100567.03;;;36.37;23.80
30730;BME280;17476;48.458;7.928;2022-08-06T10:42:53;100567.34;;;36.71;23.53
30730;BME280;17476;48.458;7.928;2022-08-06T10:45:19;100576.63;;;36.96;23.25
30730;BME280;17476;48.458;7.928;2022-08-06T10:47:47;100564.53;;;37.14;22.59
30730;BME280;17476;48.458;7.928;2022-08-06T10:50:14;100561.75;;;36.24;22.81
30730;BME280;17476;48.458;7.928;2022-08-06T10:52:42;100561.75;;;36.50;22.97
30730;BME280;17476;48.458;7.928;2022-08-06T10:55:09;100559.47;;;36.78;23.08
30730;BME280;17476;48.458;7.928;2022-08-06T10:57:38;100563.97;;;36.82;22.64
30730;BME280;17476;48.458;7.928;2022-08-06T11:00:07;100550.81;;;37.31;22.27
30730;BME280;17476;48.458;7.928;2022-08-06T11:03:11;100549.31;;;37.72;21.76
30730;BME280;17476;48.458;7.928;2022-08-06T11:05:40;100546.66;;;37.63;21.88
30730;BME280;17476;48.458;7.928;2022-08-06T11:11:12;100556.25;;;36.84;22.18
30730;BME280;17476;48.458;7.928;2022-08-06T11:14:13;100548.31;;;36.53;22.64
30730;BME280;17476;48.458;7.928;2022-08-06T11:16:40;100556.16;;;36.20;22.48
30730;BME280;17476;48.458;7.928;2022-08-06T11:19:09;100542.16;;;35.78;23.30
30730;BME280;17476;48.458;7.928;2022-08-06T11:24:05;100541.03;;;35.88;23.20
30730;BME280;17476;48.458;7.928;2022-08-06T11:26:35;100533.75;;;35.49;23.05
30730;BME280;17476;48.458;7.928;2022-08-06T11:29:03;100541.97;;;35.26;23.39
30730;BME280;17476;48.458;7.928;2022-08-06T11:31:41;100537.50;;;34.68;23.72
30730;BME280;17476;48.458;7.928;2022-08-06T11:34:12;100521.53;;;34.31;24.42
30730;BME280;17476;48.458;7.928;2022-08-06T11:36:54;100525.69;;;34.28;24.31
30730;BME280;17476;48.458;7.928;2022-08-06T11:39:24;100519.00;;;34.12;24.71
30730;BME280;17476;48.458;7.928;2022-08-06T11:41:59;100515.97;;;34.13;24.74
30730;BME280;17476;48.458;7.928;2022-08-06T11:44:33;100508.56;;;34.28;24.42
30730;BME280;17476;48.458;7.928;2022-08-06T11:47:12;100506.66;;;34.42;23.94
30730;BME280;17476;48.458;7.928;2022-08-06T11:49:47;100515.44;;;34.25;24.42
30730;BME280;17476;48.458;7.928;2022-08-06T11:55:03;100517.78;;;35.16;24.18
30730;BME280;17476;48.458;7.928;2022-08-06T11:57:31;100497.84;;;36.04;23.76
30730;BME280;17476;48.458;7.928;2022-08-06T12:08:19;100500.66;;;38.16;21.91
30730;BME280;17476;48.458;7.928;2022-08-06T12:11:21;100491.56;;;38.45;20.88
30730;BME280;17476;48.458;7.928;2022-08-06T12:13:48;100494.44;;;38.61;20.39
30730;BME280;17476;48.458;7.928;2022-08-06T12:16:37;100495.91;;;38.91;19.97
30730;BME280;17476;48.458;7.928;2022-08-06T12:19:06;100488.84;;;38.90;19.98
30730;BME280;17476;48.458;7.928;2022-08-06T12:21:36;100488.25;;;39.46;20.12
30730;BME280;17476;48.458;7.928;2022-08-06T12:24:05;100486.00;;;39.88;19.73
30730;BME280;17476;48.458;7.928;2022-08-06T12:26:32;100488.03;;;39.39;19.85
30730;BME280;17476;48.458;7.928;2022-08-06T12:29:04;100479.91;;;38.81;19.94
30730;BME280;17476;48.458;7.928;2022-08-06T12:31:34;100476.09;;;38.61;20.54
30730;BME280;17476;48.458;7.928;2022-08-06T12:34:01;100479.16;;;38.47;20.80
30730;BME280;17476;48.458;7.928;2022-08-06T12:36:30;100479.78;;;38.32;21.08
30730;BME280;17476;48.458;7.928;2022-08-06T12:38:58;100474.47;;;38.15;20.55
30730;BME280;17476;48.458;7.928;2022-08-06T12:41:37;100454.75;;;38.30;19.99
30730;BME280;17476;48.458;7.928;2022-08-06T12:44:03;100465.00;;;37.50;21.01
30730;BME280;17476;48.458;7.928;2022-08-06T12:46:30;100462.94;;;37.17;21.38
30730;BME280;17476;48.458;7.928;2022-08-06T12:48:56;100463.63;;;36.67;21.60
30730;BME280;17476;48.458;7.928;2022-08-06T12:51:22;100458.41;;;36.27;22.41
30730;BME280;17476;48.458;7.928;2022-08-06T12:53:56;100457.53;;;36.61;21.63
30730;BME280;17476;48.458;7.928;2022-08-06T12:56:25;100458.63;;;36.69;22.04
30730;BME280;17476;48.458;7.928;2022-08-06T12:58:52;100458.28;;;36.71;21.90
30730;BME280;17476;48.458;7.928;2022-08-06T13:01:23;100447.13;;;36.37;22.35
30730;BME280;17476;48.458;7.928;2022-08-06T13:03:54;100450.84;;;36.42;22.09
30730;BME280;17476;48.458;7.928;2022-08-06T13:06:25;100446.22;;;36.42;22.44
30730;BME280;17476;48.458;7.928;2022-08-06T13:08:54;100446.09;;;36.77;21.80
30730;BME280;17476;48.458;7.928;2022-08-06T13:11:29;100441.84;;;36.97;21.91
30730;BME280;17476;48.458;7.928;2022-08-06T13:13:56;100436.25;;;37.52;21.16
30730;BME280;17476;48.458;7.928;2022-08-06T13:16:24;100440.00;;;37.68;20.95
30730;BME280;17476;48.458;7.928;2022-08-06T13:19:23;100444.06;;;37.83;20.86
30730;BME280;17476;48.458;7.928;2022-08-06T13:21:59;100439.00;;;37.94;20.59
30730;BME280;17476;48.458;7.928;2022-08-06T13:24:27;100427.13;;;38.56;20.26
30730;BME280;17476;48.458;7.928;2022-08-06T13:26:54;100431.03;;;38.80;20.42
30730;BME280;17476;48.458;7.928;2022-08-06T13:29:25;100431.16;;;38.83;20.06
30730;BME280;17476;48.458;7.928;2022-08-06T13:34:28;100432.06;;;39.24;19.28
30730;BME280;17476;48.458;7.928;2022-08-06T13:36:57;100423.16;;;39.15;19.06
30730;BME280;17476;48.458;7.928;2022-08-06T13:39:30;100434.84;;;38.54;19.45
30730;BME280;17476;48.458;7.928;2022-08-06T13:42:09;100427.34;;;38.63;19.98
30730;BME280;17476;48.458;7.928;2022-08-06T13:44:43;100430.59;;;38.32;19.68
30730;BME280;17476;48.458;7.928;2022-08-06T13:47:13;100428.72;;;38.57;19.92
30730;BME280;17476;48.458;7.928;2022-08-06T13:49:43;100431.72;;;37.77;20.00
30730;BME280;17476;48.458;7.928;2022-08-06T13:52:11;100427.72;;;37.03;20.39
30730;BME280;17476;48.458;7.928;2022-08-06T13:54:37;100426.16;;;36.85;21.00
30730;BME280;17476;48.458;7.928;2022-08-06T13:57:04;100423.22;;;36.99;20.59
30730;BME280;17476;48.458;7.928;2022-08-06T13:59:31;100418.97;;;36.80;20.73
30730;BME280;17476;48.458;7.928;2022-08-06T14:01:59;100416.81;;;36.65;21.00
30730;BME280;17476;48.458;7.928;2022-08-06T14:04:27;100410.13;;;36.92;20.68
30730;BME280;17476;48.458;7.928;2022-08-06T14:06:57;100417.63;;;37.25;20.46
30730;BME280;17476;48.458;7.928;2022-08-06T14:09:26;100409.78;;;36.85;20.42
30730;BME280;17476;48.458;7.928;2022-08-06T14:11:59;100408.13;;;35.99;21.25
30730;BME280;17476;48.458;7.928;2022-08-06T14:14:27;100405.72;;;35.54;22.03